sensor_id;sensor_type;location;lat;lon;timestamp;pressure;altitude;pressure_sealevel;temperature;humidity
75895;BME280;64573;50.328;15.014;2024-03-23T00:52:15;98142.56;;;17.00;75.22
75895;BME280;64573;50.328;15.014;2024-03-23T00:54:40;98145.28;;;16.72;77.56
75895;BME280;64573;50.328;15.014;2024-03-23T00:57:06;98136.97;;;17.35;74.40
75895;BME280;64573;50.328;15.014;2024-03-23T00:59:31;98133.53;;;17.57;72.92
75895;BME280;64573;50.328;15.014;2024-03-23T01:01:56;98128.00;;;17.18;75.42
75895;BME280;64573;50.328;15.014;2024-03-23T01:04:22;98133.97;;;17.03;77.27
75895;BME280;64573;50.328;15.014;2024-03-23T01:06:47;98120.69;;;17.19;76.36
75895;BME280;64573;50.328;15.014;2024-03-23T01:09:13;98124.97;;;16.86;79.54
75895;BME280;64573;50.328;15.014;2024-03-23T01:11:38;98120.97;;;16.89;77.23
75895;BME280;64573;50.328;15.014;2024-03-23T01:14:04;98115.31;;;16.90;77.86
75895;BME280;64573;50.328;15.014;2024-03-23T01:16:30;98114.13;;;17.15;74.23
75895;BME280;64573;50.328;15.014;2024-03-23T01:18:55;98113.25;;;17.26;72.11
75895;BME280;64573;50.328;15.014;2024-03-23T01:21:20;98111.34;;;17.43;70.82
75895;BME280;64573;50.328;15.014;2024-03-23T01:23:46;98104.28;;;17.25;71.33
75895;BME280;64573;50.328;15.014;2024-03-23T01:26:11;98103.88;;;17.33;71.30
75895;BME280;64573;50.328;15.014;2024-03-23T01:28:37;98101.56;;;17.42;70.41
75895;BME280;64573;50.328;15.014;2024-03-23T01:31:02;98092.44;;;16.98;71.98
75895;BME280;64573;50.328;15.014;2024-03-23T01:33:28;98098.50;;;17.05;72.64
75895;BME280;64573;50.328;15.014;2024-03-23T01:35:53;98089.72;;;17.15;71.02
75895;BME280;64573;50.328;15.014;2024-03-23T01:38:18;98094.44;;;17.19;70.95
75895;BME280;64573;50.328;15.014;2024-03-23T01:40:44;98089.56;;;17.21;70.56
75895;BME280;64573;50.328;15.014;2024-03-23T01:43:09;98085.25;;;16.63;73.27
75895;BME280;64573;50.328;15.014;2024-03-23T01:45:35;98083.63;;;16.74;75.68
75895;BME280;64573;50.328;15.014;2024-03-23T01:48:00;98074.78;;;16.67;76.89
75895;BME280;64573;50.328;15.014;2024-03-23T01:50:27;98072.47;;;16.18;80.38
75895;BME280;64573;50.328;15.014;2024-03-23T01:52:53;98069.53;;;16.20;80.74
75895;BME280;64573;50.328;15.014;2024-03-23T01:55:19;98066.53;;;16.33;77.02
75895;BME280;64573;50.328;15.014;2024-03-23T01:57:44;98059.38;;;16.27;76.77
75895;BME280;64573;50.328;15.014;2024-03-23T02:00:10;98052.84;;;16.23;78.06
75895;BME280;64573;50.328;15.014;2024-03-23T02:02:44;98041.53;;;15.51;83.09
75895;BME280;64573;50.328;15.014;2024-03-23T02:05:11;98030.97;;;16.13;81.18
75895;BME280;64573;50.328;15.014;2024-03-23T02:07:38;98026.47;;;16.30;77.41
75895;BME280;64573;50.328;15.014;2024-03-23T02:10:05;98036.59;;;16.51;76.46
75895;BME280;64573;50.328;15.014;2024-03-23T02:12:31;98037.44;;;16.80;74.08
75895;BME280;64573;50.328;15.014;2024-03-23T02:14:56;98039.75;;;16.89;72.66
75895;BME280;64573;50.328;15.014;2024-03-23T02:17:21;98036.53;;;16.92;72.04
75895;BME280;64573;50.328;15.014;2024-03-23T02:19:47;98041.69;;;16.76;72.82
75895;BME280;64573;50.328;15.014;2024-03-23T02:22:12;98034.06;;;16.62;73.13
75895;BME280;64573;50.328;15.014;2024-03-23T02:24:37;98030.28;;;16.46;74.04
75895;BME280;64573;50.328;15.014;2024-03-23T02:27:03;98029.66;;;16.44;74.20
75895;BME280;64573;50.328;15.014;2024-03-23T02:29:28;98028.13;;;16.19;75.01
75895;BME280;64573;50.328;15.014;2024-03-23T02:31:54;98018.88;;;16.04;75.71
75895;BME280;64573;50.328;15.014;2024-03-23T02:34:19;98019.50;;;15.94;76.11
75895;BME280;64573;50.328;15.014;2024-03-23T02:36:44;98014.59;;;15.56;77.09
75895;BME280;64573;50.328;15.014;2024-03-23T02:39:09;98008.16;;;15.68;75.63
75895;BME280;64573;50.328;15.014;2024-03-23T02:41:35;98010.25;;;15.78;74.48
75895;BME280;64573;50.328;15.014;2024-03-23T02:44:01;98002.16;;;15.55;75.33
75895;BME280;64573;50.328;15.014;2024-03-23T02:46:27;97994.41;;;15.23;76.15
75895;BME280;64573;50.328;15.014;2024-03-23T02:48:52;97994.50;;;15.05;77.75
75895;BME280;64573;50.328;15.014;2024-03-23T02:51:17;97985.53;;;14.69;79.66
75895;BME280;64573;50.328;15.014;2024-03-23T02:53:43;97982.19;;;14.97;79.42
75895;BME280;64573;50.328;15.014;2024-03-23T02:56:08;97981.94;;;14.99;77.98
75895;BME280;64573;50.328;15.014;2024-03-23T02:58:33;97977.63;;;15.09;77.75
75895;BME280;64573;50.328;15.014;2024-03-23T03:00:59;97972.09;;;15.28;76.70
75895;BME280;64573;50.328;15.014;2024-03-23T03:03:24;97970.44;;;15.27;75.79
75895;BME280;64573;50.328;15.014;2024-03-23T03:05:56;97963.75;;;14.82;77.70
75895;BME280;64573;50.328;15.014;2024-03-23T03:08:21;97957.28;;;14.72;78.82
75895;BME280;64573;50.328;15.014;2024-03-23T03:10:47;97953.66;;;14.89;77.56
75895;BME280;64573;50.328;15.014;2024-03-23T03:13:12;97961.25;;;14.57;78.34
75895;BME280;64573;50.328;15.014;2024-03-23T03:15:40;97951.31;;;14.40;80.54
75895;BME280;64573;50.328;15.014;2024-03-23T03:18:05;97948.59;;;14.28;80.77
75895;BME280;64573;50.328;15.014;2024-03-23T03:20:31;97946.63;;;14.35;81.12
75895;BME280;64573;50.328;15.014;2024-03-23T03:22:57;97944.28;;;14.39;80.88
75895;BME280;64573;50.328;15.014;2024-03-23T03:25:22;97941.28;;;14.17;81.91
75895;BME280;64573;50.328;15.014;2024-03-23T03:27:47;97943.00;;;13.99;84.02
75895;BME280;64573;50.328;15.014;2024-03-23T03:30:13;97946.78;;;14.10;82.28
75895;BME280;64573;50.328;15.014;2024-03-23T03:32:38;97941.38;;;14.10;83.49
75895;BME280;64573;50.328;15.014;2024-03-23T03:35:04;97938.28;;;13.95;84.47
75895;BME280;64573;50.328;15.014;2024-03-23T03:37:29;97939.88;;;13.84;84.88
75895;BME280;64573;50.328;15.014;2024-03-23T03:39:55;97929.59;;;13.93;84.44
75895;BME280;64573;50.328;15.014;2024-03-23T03:42:20;97933.06;;;13.82;85.42
75895;BME280;64573;50.328;15.014;2024-03-23T03:44:45;97933.75;;;13.77;85.02
75895;BME280;64573;50.328;15.014;2024-03-23T03:47:11;97931.88;;;13.77;85.20
75895;BME280;64573;50.328;15.014;2024-03-23T03:49:36;97929.72;;;13.49;86.48
75895;BME280;64573;50.328;15.014;2024-03-23T03:52:01;97934.72;;;13.46;87.70
75895;BME280;64573;50.328;15.014;2024-03-23T03:54:27;97938.13;;;13.41;87.87
75895;BME280;64573;50.328;15.014;2024-03-23T03:56:52;97932.66;;;13.48;87.29
75895;BME280;64573;50.328;15.014;2024-03-23T03:59:18;97931.00;;;13.29;89.25
75895;BME280;64573;50.328;15.014;2024-03-23T04:01:43;97925.47;;;13.42;88.49
75895;BME280;64573;50.328;15.014;2024-03-23T04:04:09;97915.84;;;13.34;87.94
75895;BME280;64573;50.328;15.014;2024-03-23T04:06:34;97906.66;;;13.17;89.47
75895;BME280;64573;50.328;15.014;2024-03-23T04:09:00;97909.22;;;13.12;88.94
75895;BME280;64573;50.328;15.014;2024-03-23T04:11:25;97903.84;;;13.30;88.75
75895;BME280;64573;50.328;15.014;2024-03-23T04:13:51;97894.94;;;13.30;87.83
75895;BME280;64573;50.328;15.014;2024-03-23T04:16:29;97887.63;;;13.55;86.87
75895;BME280;64573;50.328;15.014;2024-03-23T04:18:55;97886.91;;;13.60;85.71
75895;BME280;64573;50.328;15.014;2024-03-23T04:21:21;97875.34;;;13.41;84.95
75895;BME280;64573;50.328;15.014;2024-03-23T04:23:47;97869.34;;;13.57;85.28
75895;BME280;64573;50.328;15.014;2024-03-23T04:26:12;97879.72;;;13.72;84.70
75895;BME280;64573;50.328;15.014;2024-03-23T04:28:38;97882.44;;;13.53;85.43
75895;BME280;64573;50.328;15.014;2024-03-23T04:31:04;97887.03;;;13.35;85.93
75895;BME280;64573;50.328;15.014;2024-03-23T04:33:29;97882.56;;;13.77;84.74
75895;BME280;64573;50.328;15.014;2024-03-23T04:35:54;97878.63;;;13.91;81.79
75895;BME280;64573;50.328;15.014;2024-03-23T04:38:20;97878.22;;;13.03;86.70
75895;BME280;64573;50.328;15.014;2024-03-23T04:43:14;97868.44;;;13.08;88.92
75895;BME280;64573;50.328;15.014;2024-03-23T04:45:39;97878.41;;;13.08;87.78
75895;BME280;64573;50.328;15.014;2024-03-23T04:48:05;97866.16;;;13.30;86.30
75895;BME280;64573;50.328;15.014;2024-03-23T04:50:30;97866.34;;;13.47;86.06
75895;BME280;64573;50.328;15.014;2024-03-23T04:52:56;97860.69;;;13.37;85.24
75895;BME280;64573;50.328;15.014;2024-03-23T04:55:21;97849.91;;;13.97;82.26
75895;BME280;64573;50.328;15.014;2024-03-23T04:57:47;97842.09;;;14.19;81.12
75895;BME280;64573;50.328;15.014;2024-03-23T05:00:13;97834.84;;;14.19;80.39
75895;BME280;64573;50.328;15.014;2024-03-23T05:02:44;97837.66;;;14.24;80.70
75895;BME280;64573;50.328;15.014;2024-03-23T05:05:10;97839.81;;;14.34;81.18
75895;BME280;64573;50.328;15.014;2024-03-23T05:07:36;97827.44;;;14.26;80.56
75895;BME280;64573;50.328;15.014;2024-03-23T05:10:01;97835.81;;;13.83;84.42
75895;BME280;64573;50.328;15.014;2024-03-23T05:12:26;97820.25;;;14.74;79.66
75895;BME280;64573;50.328;15.014;2024-03-23T05:14:51;97831.09;;;15.14;77.37
75895;BME280;64573;50.328;15.014;2024-03-23T05:17:17;97837.84;;;14.53;80.12
75895;BME280;64573;50.328;15.014;2024-03-23T05:19:43;97835.25;;;14.58;78.84
75895;BME280;64573;50.328;15.014;2024-03-23T05:22:09;97829.47;;;14.43;80.20
75895;BME280;64573;50.328;15.014;2024-03-23T05:24:34;97825.59;;;15.09;75.88
75895;BME280;64573;50.328;15.014;2024-03-23T05:27:00;97815.78;;;14.79;77.00
75895;BME280;64573;50.328;15.014;2024-03-23T05:29:25;97813.53;;;15.00;77.53
75895;BME280;64573;50.328;15.014;2024-03-23T05:31:51;97815.13;;;15.81;73.45
75895;BME280;64573;50.328;15.014;2024-03-23T05:34:17;97813.41;;;14.95;75.44
75895;BME280;64573;50.328;15.014;2024-03-23T05:36:43;97816.97;;;15.64;73.58
75895;BME280;64573;50.328;15.014;2024-03-23T05:39:08;97818.56;;;15.08;73.72
75895;BME280;64573;50.328;15.014;2024-03-23T05:41:33;97810.44;;;15.08;74.92
75895;BME280;64573;50.328;15.014;2024-03-23T05:44:01;97802.88;;;15.62;71.56
75895;BME280;64573;50.328;15.014;2024-03-23T05:46:26;97794.41;;;15.58;72.03
75895;BME280;64573;50.328;15.014;2024-03-23T05:48:52;97789.66;;;16.27;69.63
75895;BME280;64573;50.328;15.014;2024-03-23T05:51:17;97790.50;;;16.11;69.12
75895;BME280;64573;50.328;15.014;2024-03-23T05:53:43;97790.56;;;16.33;68.92
75895;BME280;64573;50.328;15.014;2024-03-23T05:56:08;97781.63;;;15.82;69.75
75895;BME280;64573;50.328;15.014;2024-03-23T05:58:34;97775.88;;;16.29;68.46
75895;BME280;64573;50.328;15.014;2024-03-23T06:03:29;97766.72;;;16.13;68.38
75895;BME280;64573;50.328;15.014;2024-03-23T06:05:55;97772.03;;;16.42;68.17
75895;BME280;64573;50.328;15.014;2024-03-23T06:08:21;97764.13;;;16.57;67.43
75895;BME280;64573;50.328;15.014;2024-03-23T06:10:47;97763.53;;;15.83;67.93
75895;BME280;64573;50.328;15.014;2024-03-23T06:13:13;97762.97;;;15.52;71.28
75895;BME280;64573;50.328;15.014;2024-03-23T06:15:39;97773.94;;;16.24;70.89
75895;BME280;64573;50.328;15.014;2024-03-23T06:18:04;97767.38;;;16.37;69.02
75895;BME280;64573;50.328;15.014;2024-03-23T06:20:30;97759.06;;;16.61;68.52
75895;BME280;64573;50.328;15.014;2024-03-23T06:22:56;97754.50;;;16.44;68.87
75895;BME280;64573;50.328;15.014;2024-03-23T06:25:21;97750.84;;;16.55;68.94
75895;BME280;64573;50.328;15.014;2024-03-23T06:27:47;97740.66;;;16.24;69.13
75895;BME280;64573;50.328;15.014;2024-03-23T06:30:12;97733.59;;;16.40;69.62
75895;BME280;64573;50.328;15.014;2024-03-23T06:32:38;97723.19;;;16.15;69.28
75895;BME280;64573;50.328;15.014;2024-03-23T06:35:03;97725.06;;;16.31;70.48
75895;BME280;64573;50.328;15.014;2024-03-23T06:37:33;97733.41;;;16.46;68.79
75895;BME280;64573;50.328;15.014;2024-03-23T06:39:59;97741.47;;;16.24;67.91
75895;BME280;64573;50.328;15.014;2024-03-23T06:42:24;97742.53;;;16.40;67.35
75895;BME280;64573;50.328;15.014;2024-03-23T06:44:49;97726.19;;;16.35;67.22
75895;BME280;64573;50.328;15.014;2024-03-23T06:47:15;97719.34;;;15.77;69.50
75895;BME280;64573;50.328;15.014;2024-03-23T06:49:40;97704.28;;;15.98;73.13
75895;BME280;64573;50.328;15.014;2024-03-23T06:52:05;97707.47;;;16.12;73.43
75895;BME280;64573;50.328;15.014;2024-03-23T06:54:31;97701.25;;;16.11;74.39
75895;BME280;64573;50.328;15.014;2024-03-23T06:56:56;97701.09;;;17.00;72.41
75895;BME280;64573;50.328;15.014;2024-03-23T06:59:21;97693.03;;;17.05;69.37
75895;BME280;64573;50.328;15.014;2024-03-23T07:01:47;97690.47;;;17.21;71.13
75895;BME280;64573;50.328;15.014;2024-03-23T07:04:12;97694.75;;;17.39;70.66
75895;BME280;64573;50.328;15.014;2024-03-23T07:06:44;97693.94;;;16.89;70.35
75895;BME280;64573;50.328;15.014;2024-03-23T07:09:10;97683.16;;;17.21;70.08
75895;BME280;64573;50.328;15.014;2024-03-23T07:11:35;97682.28;;;17.16;69.52
75895;BME280;64573;50.328;15.014;2024-03-23T07:14:01;97673.72;;;17.24;67.56
75895;BME280;64573;50.328;15.014;2024-03-23T07:16:27;97707.28;;;16.96;67.10
75895;BME280;64573;50.328;15.014;2024-03-23T07:18:53;97684.22;;;16.93;67.54
75895;BME280;64573;50.328;15.014;2024-03-23T07:21:18;97681.84;;;16.75;68.08
75895;BME280;64573;50.328;15.014;2024-03-23T07:23:44;97682.50;;;16.87;68.57
75895;BME280;64573;50.328;15.014;2024-03-23T07:26:12;97680.69;;;16.71;68.77
75895;BME280;64573;50.328;15.014;2024-03-23T07:28:37;97675.84;;;16.73;71.17
75895;BME280;64573;50.328;15.014;2024-03-23T07:31:08;97662.59;;;15.94;72.43
75895;BME280;64573;50.328;15.014;2024-03-23T07:33:35;97646.47;;;16.43;72.58
75895;BME280;64573;50.328;15.014;2024-03-23T07:36:01;97643.75;;;16.60;72.54
75895;BME280;64573;50.328;15.014;2024-03-23T07:38:30;97639.69;;;17.38;71.41
75895;BME280;64573;50.328;15.014;2024-03-23T07:41:06;97631.16;;;16.70;70.96
75895;BME280;64573;50.328;15.014;2024-03-23T07:43:31;97623.16;;;16.80;72.74
75895;BME280;64573;50.328;15.014;2024-03-23T07:48:22;97600.06;;;17.64;66.35
75895;BME280;64573;50.328;15.014;2024-03-23T07:53:26;97596.72;;;17.84;65.24
75895;BME280;64573;50.328;15.014;2024-03-23T07:55:54;97585.75;;;17.69;64.40
75895;BME280;64573;50.328;15.014;2024-03-23T07:58:20;97578.72;;;18.15;64.99
75895;BME280;64573;50.328;15.014;2024-03-23T08:00:45;97569.00;;;18.29;61.37
75895;BME280;64573;50.328;15.014;2024-03-23T08:03:10;97557.78;;;18.73;61.46
75895;BME280;64573;50.328;15.014;2024-03-23T08:05:36;97550.53;;;18.21;60.48
75895;BME280;64573;50.328;15.014;2024-03-23T08:08:01;97538.25;;;19.52;58.35
75895;BME280;64573;50.328;15.014;2024-03-23T08:10:26;97534.22;;;20.45;56.33
75895;BME280;64573;50.328;15.014;2024-03-23T08:12:52;97533.06;;;21.01;54.78
75895;BME280;64573;50.328;15.014;2024-03-23T08:15:17;97528.31;;;22.27;50.93
75895;BME280;64573;50.328;15.014;2024-03-23T08:17:43;97529.72;;;22.68;49.78
75895;BME280;64573;50.328;15.014;2024-03-23T08:20:08;97528.75;;;23.15;47.69
75895;BME280;64573;50.328;15.014;2024-03-23T08:22:34;97524.91;;;22.78;47.44
75895;BME280;64573;50.328;15.014;2024-03-23T08:24:59;97525.06;;;22.68;47.80
75895;BME280;64573;50.328;15.014;2024-03-23T08:27:24;97525.44;;;23.83;44.99
75895;BME280;64573;50.328;15.014;2024-03-23T08:29:50;97523.31;;;24.08;44.57
75895;BME280;64573;50.328;15.014;2024-03-23T08:32:15;97514.69;;;24.92;43.14
75895;BME280;64573;50.328;15.014;2024-03-23T08:34:42;97509.94;;;24.34;44.37
75895;BME280;64573;50.328;15.014;2024-03-23T08:37:07;97506.50;;;24.78;42.18
75895;BME280;64573;50.328;15.014;2024-03-23T08:39:32;97503.66;;;25.06;41.58
75895;BME280;64573;50.328;15.014;2024-03-23T08:41:58;97506.88;;;24.49;41.92
75895;BME280;64573;50.328;15.014;2024-03-23T08:44:23;97494.06;;;25.39;41.50
75895;BME280;64573;50.328;15.014;2024-03-23T08:46:49;97492.13;;;25.40;41.38
75895;BME280;64573;50.328;15.014;2024-03-23T08:49:14;97494.03;;;25.93;40.00
75895;BME280;64573;50.328;15.014;2024-03-23T08:51:39;97485.69;;;26.06;39.29
75895;BME280;64573;50.328;15.014;2024-03-23T08:54:05;97483.09;;;25.39;40.82
75895;BME280;64573;50.328;15.014;2024-03-23T08:56:30;97478.06;;;25.95;39.85
75895;BME280;64573;50.328;15.014;2024-03-23T08:58:55;97473.25;;;26.66;39.17
75895;BME280;64573;50.328;15.014;2024-03-23T09:01:21;97473.78;;;27.58;37.68
75895;BME280;64573;50.328;15.014;2024-03-23T09:03:46;97476.78;;;26.84;38.21
75895;BME280;64573;50.328;15.014;2024-03-23T09:06:14;97485.88;;;27.02;39.55
75895;BME280;64573;50.328;15.014;2024-03-23T09:08:40;97483.75;;;26.90;38.55
75895;BME280;64573;50.328;15.014;2024-03-23T09:11:06;97452.22;;;24.89;40.66
75895;BME280;64573;50.328;15.014;2024-03-23T09:13:33;97463.81;;;25.30;40.77
75895;BME280;64573;50.328;15.014;2024-03-23T09:15:59;97452.69;;;25.98;39.44
75895;BME280;64573;50.328;15.014;2024-03-23T09:18:25;97445.25;;;25.58;39.63
75895;BME280;64573;50.328;15.014;2024-03-23T09:20:50;97442.38;;;26.03;40.93
75895;BME280;64573;50.328;15.014;2024-03-23T09:23:16;97420.41;;;24.43;41.34
75895;BME280;64573;50.328;15.014;2024-03-23T09:25:41;97443.16;;;22.44;43.41
75895;BME280;64573;50.328;15.014;2024-03-23T09:28:07;97429.03;;;21.52;47.25
75895;BME280;64573;50.328;15.014;2024-03-23T09:30:36;97451.34;;;22.01;47.72
75895;BME280;64573;50.328;15.014;2024-03-23T09:33:07;97443.63;;;21.85;45.90
75895;BME280;64573;50.328;15.014;2024-03-23T09:38:01;97447.91;;;21.43;49.41
75895;BME280;64573;50.328;15.014;2024-03-23T09:40:26;97438.81;;;20.95;49.74
75895;BME280;64573;50.328;15.014;2024-03-23T09:42:52;97429.63;;;20.41;48.51
75895;BME280;64573;50.328;15.014;2024-03-23T09:45:21;97438.44;;;21.35;48.22
75895;BME280;64573;50.328;15.014;2024-03-23T09:47:49;97440.97;;;20.98;48.09
75895;BME280;64573;50.328;15.014;2024-03-23T09:50:16;97443.31;;;20.31;47.42
75895;BME280;64573;50.328;15.014;2024-03-23T09:52:42;97436.09;;;19.16;49.46
75895;BME280;64573;50.328;15.014;2024-03-23T09:55:08;97442.06;;;19.28;50.60
75895;BME280;64573;50.328;15.014;2024-03-23T09:57:34;97449.91;;;18.53;50.40
75895;BME280;64573;50.328;15.014;2024-03-23T10:00:00;97457.16;;;18.17;53.06
75895;BME280;64573;50.328;15.014;2024-03-23T10:02:26;97438.66;;;17.99;56.40
75895;BME280;64573;50.328;15.014;2024-03-23T10:04:53;97462.94;;;17.68;58.06
75895;BME280;64573;50.328;15.014;2024-03-23T10:07:19;97459.44;;;17.30;60.73
75895;BME280;64573;50.328;15.014;2024-03-23T10:09:45;97474.22;;;18.07;62.42
75895;BME280;64573;50.328;15.014;2024-03-23T10:12:13;97481.50;;;17.49;64.30
75895;BME280;64573;50.328;15.014;2024-03-23T10:14:41;97468.84;;;17.65;67.84
75895;BME280;64573;50.328;15.014;2024-03-23T10:17:18;97464.47;;;17.54;71.08
75895;BME280;64573;50.328;15.014;2024-03-23T10:22:13;97479.97;;;17.63;78.48
75895;BME280;64573;50.328;15.014;2024-03-23T10:24:39;97468.88;;;17.23;78.66
75895;BME280;64573;50.328;15.014;2024-03-23T10:27:04;97494.97;;;16.97;81.03
75895;BME280;64573;50.328;15.014;2024-03-23T10:29:30;97494.75;;;16.49;81.03
75895;BME280;64573;50.328;15.014;2024-03-23T10:32:08;97503.31;;;16.90;80.48
75895;BME280;64573;50.328;15.014;2024-03-23T10:34:34;97517.44;;;16.97;78.66
75895;BME280;64573;50.328;15.014;2024-03-23T10:37:02;97522.81;;;16.92;81.18
75895;BME280;64573;50.328;15.014;2024-03-23T10:39:32;97528.63;;;17.06;81.92
75895;BME280;64573;50.328;15.014;2024-03-23T10:42:01;97525.53;;;17.24;81.09
75895;BME280;64573;50.328;15.014;2024-03-23T10:44:28;97528.44;;;16.86;81.42
75895;BME280;64573;50.328;15.014;2024-03-23T10:47:03;97512.53;;;16.94;79.47
75895;BME280;64573;50.328;15.014;2024-03-23T10:49:33;97524.53;;;17.03;77.91
75895;BME280;64573;50.328;15.014;2024-03-23T10:52:05;97536.59;;;16.64;74.25
75895;BME280;64573;50.328;15.014;2024-03-23T10:54:32;97534.34;;;17.09;74.04
75895;BME280;64573;50.328;15.014;2024-03-23T10:57:11;97538.63;;;17.05;71.60
75895;BME280;64573;50.328;15.014;2024-03-23T10:59:38;97547.41;;;17.18;73.10
75895;BME280;64573;50.328;15.014;2024-03-23T11:02:04;97537.88;;;17.10;71.08
75895;BME280;64573;50.328;15.014;2024-03-23T11:04:34;97538.09;;;17.03;71.39
75895;BME280;64573;50.328;15.014;2024-03-23T11:07:01;97553.94;;;16.90;70.40
75895;BME280;64573;50.328;15.014;2024-03-23T11:09:39;97549.09;;;17.61;69.10
75895;BME280;64573;50.328;15.014;2024-03-23T11:14:47;97525.69;;;17.13;67.92
75895;BME280;64573;50.328;15.014;2024-03-23T11:17:18;97530.66;;;16.94;67.87
75895;BME280;64573;50.328;15.014;2024-03-23T11:19:43;97535.94;;;17.05;67.21
75895;BME280;64573;50.328;15.014;2024-03-23T11:22:08;97517.59;;;16.32;67.99
75895;BME280;64573;50.328;15.014;2024-03-23T11:24:34;97536.47;;;17.07;66.49
75895;BME280;64573;50.328;15.014;2024-03-23T11:27:00;97543.03;;;17.12;68.28
75895;BME280;64573;50.328;15.014;2024-03-23T11:29:29;97532.13;;;17.06;66.65
75895;BME280;64573;50.328;15.014;2024-03-23T11:31:55;97556.53;;;17.44;65.45
75895;BME280;64573;50.328;15.014;2024-03-23T11:34:21;97534.84;;;16.74;66.07
75895;BME280;64573;50.328;15.014;2024-03-23T11:36:47;97550.81;;;17.03;65.23
75895;BME280;64573;50.328;15.014;2024-03-23T11:39:16;97539.19;;;17.07;66.17
75895;BME280;64573;50.328;15.014;2024-03-23T11:41:51;97530.94;;;17.24;64.23
75895;BME280;64573;50.328;15.014;2024-03-23T11:44:22;97499.34;;;17.40;61.94
75895;BME280;64573;50.328;15.014;2024-03-23T11:46:49;97521.84;;;17.03;66.87
75895;BME280;64573;50.328;15.014;2024-03-23T11:51:51;97552.53;;;16.87;65.16
75895;BME280;64573;50.328;15.014;2024-03-23T11:54:20;97566.75;;;17.69;66.73
75895;BME280;64573;50.328;15.014;2024-03-23T11:57:08;97549.59;;;16.89;67.50
75895;BME280;64573;50.328;15.014;2024-03-23T11:59:35;97553.22;;;16.50;77.09
75895;BME280;64573;50.328;15.014;2024-03-23T12:02:12;97575.28;;;15.60;84.42
75895;BME280;64573;50.328;15.014;2024-03-23T12:04:40;97558.88;;;15.83;83.86
75895;BME280;64573;50.328;15.014;2024-03-23T12:07:16;97604.19;;;15.76;88.68
75895;BME280;64573;50.328;15.014;2024-03-23T12:09:46;97602.31;;;15.77;88.02
75895;BME280;64573;50.328;15.014;2024-03-23T12:12:21;97622.69;;;15.84;85.61
75895;BME280;64573;50.328;15.014;2024-03-23T12:15:06;97617.22;;;15.29;81.11
75895;BME280;64573;50.328;15.014;2024-03-23T12:17:33;97636.91;;;15.12;81.78
75895;BME280;64573;50.328;15.014;2024-03-23T12:20:00;97633.47;;;15.00;80.83
75895;BME280;64573;50.328;15.014;2024-03-23T12:22:25;97645.97;;;15.06;79.26
75895;BME280;64573;50.328;15.014;2024-03-23T12:24:51;97644.13;;;14.78;79.88
75895;BME280;64573;50.328;15.014;2024-03-23T12:27:17;97640.81;;;15.05;78.17
75895;BME280;64573;50.328;15.014;2024-03-23T12:29:42;97670.34;;;15.57;75.74
75895;BME280;64573;50.328;15.014;2024-03-23T12:32:13;97638.31;;;14.86;69.99
75895;BME280;64573;50.328;15.014;2024-03-23T12:34:38;97633.75;;;14.87;67.56
75895;BME280;64573;50.328;15.014;2024-03-23T12:37:04;97653.16;;;15.29;66.43
75895;BME280;64573;50.328;15.014;2024-03-23T12:39:31;97655.41;;;16.43;65.26
75895;BME280;64573;50.328;15.014;2024-03-23T12:41:59;97642.13;;;14.74;69.34
75895;BME280;64573;50.328;15.014;2024-03-23T12:44:29;97688.19;;;13.97;71.00
75895;BME280;64573;50.328;15.014;2024-03-23T12:46:55;97685.63;;;14.49;70.25
75895;BME280;64573;50.328;15.014;2024-03-23T12:49:21;97700.91;;;14.72;70.79
75895;BME280;64573;50.328;15.014;2024-03-23T12:51:55;97696.63;;;14.35;69.79
75895;BME280;64573;50.328;15.014;2024-03-23T12:54:21;97718.19;;;14.47;68.62
75895;BME280;64573;50.328;15.014;2024-03-23T12:56:46;97752.19;;;15.12;66.15
75895;BME280;64573;50.328;15.014;2024-03-23T12:59:12;97749.94;;;14.92;64.14
75895;BME280;64573;50.328;15.014;2024-03-23T13:01:38;97723.69;;;15.04;63.03
75895;BME280;64573;50.328;15.014;2024-03-23T13:04:04;97732.16;;;14.56;58.07
75895;BME280;64573;50.328;15.014;2024-03-23T13:06:29;97753.84;;;14.73;58.99
75895;BME280;64573;50.328;15.014;2024-03-23T13:09:00;97776.69;;;14.12;59.48
75895;BME280;64573;50.328;15.014;2024-03-23T13:11:26;97775.09;;;13.69;60.89
75895;BME280;64573;50.328;15.014;2024-03-23T13:13:52;97818.28;;;13.32;61.67
75895;BME280;64573;50.328;15.014;2024-03-23T13:16:17;97835.00;;;13.52;61.45
75895;BME280;64573;50.328;15.014;2024-03-23T13:18:43;97846.88;;;13.33;63.00
75895;BME280;64573;50.328;15.014;2024-03-23T13:21:08;97843.78;;;12.93;63.96
75895;BME280;64573;50.328;15.014;2024-03-23T13:23:33;97833.50;;;13.27;62.97
75895;BME280;64573;50.328;15.014;2024-03-23T13:26:00;97861.75;;;13.36;63.66
75895;BME280;64573;50.328;15.014;2024-03-23T13:28:26;97861.78;;;12.92;61.69
75895;BME280;64573;50.328;15.014;2024-03-23T13:30:56;97889.47;;;12.56;62.83
75895;BME280;64573;50.328;15.014;2024-03-23T13:33:22;97888.56;;;13.06;63.20
75895;BME280;64573;50.328;15.014;2024-03-23T13:35:54;97906.94;;;12.90;64.13
75895;BME280;64573;50.328;15.014;2024-03-23T13:38:21;97894.75;;;12.88;63.51
75895;BME280;64573;50.328;15.014;2024-03-23T13:43:19;97891.09;;;12.82;65.54
75895;BME280;64573;50.328;15.014;2024-03-23T13:45:47;97913.69;;;12.75;64.28
75895;BME280;64573;50.328;15.014;2024-03-23T13:48:13;97934.97;;;12.58;64.62
75895;BME280;64573;50.328;15.014;2024-03-23T13:50:38;97926.53;;;13.41;62.63
75895;BME280;64573;50.328;15.014;2024-03-23T13:53:03;97902.22;;;12.86;59.78
75895;BME280;64573;50.328;15.014;2024-03-23T13:55:29;97908.44;;;13.78;60.55
75895;BME280;64573;50.328;15.014;2024-03-23T13:57:54;97924.13;;;13.51;59.02
75895;BME280;64573;50.328;15.014;2024-03-23T14:00:19;97929.00;;;13.91;59.46